Pagrindinis puslapis
METAR-TAF:

METAR-TAF

Oro uostai :

Bankokas-Suvarnabhumi, Tailandas

platuma: 13-40-52N, ilguma: 100-44-50E, Aukštis: 2 m

Dabartinis oras

Ataskaita buvo paskelbta 35 minutes, ne 00:30 UTC
Vėjas 3 kt iš Pietų/Pietvakarių
Temperatūra 26°C
Drėgmė 94%
Slėgis 1007 hPa
Matomumas: 6000 m
Mažai debesys ne aukštis 2500 ft

METAR: VTBS 260030Z 20003KT 6000 FEW025 26/25 Q1007 NOSIG

Laikas: 08:05 (01:05 UTC)

Prognozė

Ataskaita buvo paskelbta 2 valandos ir 5 minutes, ne 23:00 UTC
Prognozė galioja nuo 26 metu 00 UTC su 27 metu 06 UTC
Vėjas 8 kt iš Pietų/Pietvakarių
Matomumas: 8000 m
Mažai debesys ne aukštis 2500 ft

TAF: VTBS 252300Z 2600/2706 20008KT 8000 FEW025

Orai ataskaitas ir orų prognozės (METAR, TAF).

turimą stotys yra geltonos ir raudonos taškus žemėlapyje.

Perkelti pele per norėdami pamatyti stoties vardą.

Tada spustelėkite, norėdami matyti oro stebėjimo ir prognozės.

Norėdami pakeisti žemėlapį: spustelėkite ant žalios mygtukų su juodo kryžiaus žemyn,; žalią mygtuką su brūkšneliu, jei norite nutolinti; arba žalių rodyklių gretimoms žemėlapius.


METAR-TAF: